createdAt,value
2018-11-06T00:00:41.921Z,8.30
2018-11-06T00:02:18.932Z,8.30
2018-11-06T00:03:59.177Z,8.20
2018-11-06T00:05:34.141Z,8.20
2018-11-06T00:07:09.127Z,8.20
2018-11-06T00:08:44.050Z,8.20
2018-11-06T00:10:18.985Z,8.20
2018-11-06T00:11:53.917Z,8.20
2018-11-06T00:13:29.010Z,8.20
2018-11-06T00:15:04.005Z,8.10
2018-11-06T00:16:38.895Z,8.10
2018-11-06T00:18:13.829Z,8.10
2018-11-06T00:19:50.972Z,8.10
2018-11-06T00:21:25.865Z,8.10
2018-11-06T00:23:00.731Z,8.10
2018-11-06T00:24:35.651Z,8.00
2018-11-06T00:26:10.503Z,7.90
2018-11-06T00:27:45.415Z,7.90
2018-11-06T00:29:20.483Z,7.80
2018-11-06T00:30:55.396Z,7.80
2018-11-06T00:32:30.270Z,7.70
2018-11-06T00:34:05.587Z,7.70
2018-11-06T00:35:40.507Z,7.70
2018-11-06T00:37:15.530Z,7.70
2018-11-06T00:38:50.379Z,7.60
2018-11-06T00:40:25.281Z,7.60
2018-11-06T00:42:00.142Z,7.60
2018-11-06T00:43:34.996Z,7.60
2018-11-06T00:45:12.143Z,7.60
2018-11-06T00:46:47.020Z,7.60
2018-11-06T00:48:21.926Z,7.60
2018-11-06T00:49:56.812Z,7.60
2018-11-06T00:51:31.702Z,7.60
2018-11-06T00:53:06.715Z,7.70
2018-11-06T00:54:41.598Z,7.60
2018-11-06T00:56:16.620Z,7.60
2018-11-06T00:57:52.695Z,7.70
2018-11-06T00:59:31.482Z,7.70
2018-11-06T01:01:07.099Z,7.70
2018-11-06T01:02:42.146Z,7.70
2018-11-06T01:04:17.251Z,7.70
2018-11-06T01:05:52.245Z,7.70
2018-11-06T01:07:27.284Z,7.70
2018-11-06T01:09:04.052Z,7.70
2018-11-06T01:10:39.138Z,7.70
2018-11-06T01:12:15.110Z,7.70
2018-11-06T01:13:52.341Z,7.70
2018-11-06T01:15:28.171Z,7.60
2018-11-06T01:17:04.985Z,7.60
2018-11-06T01:18:41.117Z,7.60
2018-11-06T01:20:18.153Z,7.60
2018-11-06T01:21:53.279Z,7.50
2018-11-06T01:23:28.217Z,7.50
2018-11-06T01:25:03.146Z,7.40
2018-11-06T01:26:38.134Z,7.40
2018-11-06T01:28:15.174Z,7.30
2018-11-06T01:29:50.223Z,7.30
2018-11-06T01:31:25.197Z,7.30
2018-11-06T01:33:00.107Z,7.30
2018-11-06T01:34:34.955Z,7.30
2018-11-06T01:36:10.096Z,7.30
2018-11-06T01:37:45.614Z,7.40
2018-11-06T01:39:21.142Z,7.40
2018-11-06T01:40:56.112Z,7.50
2018-11-06T01:42:31.073Z,7.50
2018-11-06T01:44:06.132Z,7.60
2018-11-06T01:45:41.032Z,7.60
2018-11-06T01:47:16.021Z,7.60
2018-11-06T01:48:51.088Z,7.60
2018-11-06T01:50:26.084Z,7.60
2018-11-06T01:52:02.125Z,7.50
2018-11-06T01:53:37.042Z,7.50
2018-11-06T01:55:12.174Z,7.50
2018-11-06T01:56:47.063Z,7.50
2018-11-06T01:58:22.239Z,7.40
2018-11-06T01:59:57.190Z,7.40
2018-11-06T02:01:32.302Z,7.40
2018-11-06T02:03:07.263Z,7.30
2018-11-06T02:04:42.171Z,7.40
2018-11-06T02:06:17.174Z,7.40
2018-11-06T02:07:52.087Z,7.40
2018-11-06T02:09:26.939Z,7.40
2018-11-06T02:11:01.907Z,7.40
2018-11-06T02:12:36.873Z,7.40
2018-11-06T02:14:11.736Z,7.40
2018-11-06T02:15:46.660Z,7.40
2018-11-06T02:17:21.642Z,7.40
2018-11-06T02:18:56.519Z,7.40
2018-11-06T02:20:31.368Z,7.40
2018-11-06T02:22:06.374Z,7.40
2018-11-06T02:23:41.264Z,7.40
2018-11-06T02:25:16.495Z,7.40
2018-11-06T02:26:51.395Z,7.40
2018-11-06T02:28:26.241Z,7.40
2018-11-06T02:30:01.093Z,7.30
2018-11-06T02:31:35.942Z,7.30
2018-11-06T02:33:10.880Z,7.30
2018-11-06T02:34:45.735Z,7.20
2018-11-06T02:36:20.588Z,7.20
2018-11-06T02:37:55.489Z,7.10
2018-11-06T02:39:30.455Z,7.10
2018-11-06T02:41:05.661Z,7.00
2018-11-06T02:42:40.945Z,7.00
2018-11-06T02:44:15.816Z,7.00
2018-11-06T02:45:50.758Z,7.00
2018-11-06T02:47:25.682Z,7.00
2018-11-06T02:49:00.527Z,6.90
2018-11-06T02:50:35.410Z,6.90
2018-11-06T02:52:10.327Z,6.90
2018-11-06T02:53:45.195Z,6.80
2018-11-06T02:55:20.071Z,6.80
2018-11-06T02:56:54.974Z,6.80
2018-11-06T02:58:29.956Z,6.80
2018-11-06T03:00:05.640Z,6.70
2018-11-06T03:01:40.521Z,6.70
2018-11-06T03:03:15.418Z,6.70
2018-11-06T03:04:50.273Z,6.80
2018-11-06T03:06:25.193Z,6.80
2018-11-06T03:08:00.075Z,6.80
2018-11-06T03:09:34.932Z,6.80
2018-11-06T03:11:09.947Z,6.80
2018-11-06T03:12:45.295Z,6.80
2018-11-06T03:14:20.138Z,6.80
2018-11-06T03:15:55.038Z,6.80
2018-11-06T03:17:30.093Z,6.80
2018-11-06T03:19:05.131Z,6.70
2018-11-06T03:20:40.015Z,6.70
2018-11-06T03:22:14.890Z,6.70
2018-11-06T03:23:49.785Z,6.80
2018-11-06T03:25:24.750Z,6.80
2018-11-06T03:26:59.785Z,6.80
2018-11-06T03:28:34.641Z,6.80
2018-11-06T03:30:11.544Z,6.80
2018-11-06T03:31:46.495Z,6.70
2018-11-06T03:33:21.411Z,6.70
2018-11-06T03:34:56.247Z,6.70
2018-11-06T03:36:31.349Z,6.70
2018-11-06T03:38:06.212Z,6.60
2018-11-06T03:39:41.082Z,6.60
2018-11-06T03:41:16.150Z,6.70
2018-11-06T03:42:51.065Z,6.70
2018-11-06T03:44:25.923Z,6.70
2018-11-06T03:46:00.805Z,6.70
2018-11-06T03:47:35.819Z,6.70
2018-11-06T03:49:10.712Z,6.70
2018-11-06T03:50:45.567Z,6.70
2018-11-06T03:52:20.525Z,6.70
2018-11-06T03:53:55.406Z,6.70
2018-11-06T03:55:30.498Z,6.70
2018-11-06T03:57:05.502Z,6.70
2018-11-06T03:58:40.397Z,6.70
2018-11-06T04:00:15.729Z,6.70
2018-11-06T04:01:50.653Z,6.70
2018-11-06T04:03:25.546Z,6.70
2018-11-06T04:05:00.448Z,6.70
2018-11-06T04:06:35.394Z,6.60
2018-11-06T04:08:10.287Z,6.60
2018-11-06T04:09:45.138Z,6.60
2018-11-06T04:11:20.017Z,6.60
2018-11-06T04:12:54.997Z,6.60
2018-11-06T04:14:29.864Z,6.60
2018-11-06T04:16:04.731Z,6.60
2018-11-06T04:17:39.699Z,6.50
2018-11-06T04:19:14.714Z,6.50
2018-11-06T04:20:49.566Z,6.50
2018-11-06T04:22:24.631Z,6.50
2018-11-06T04:23:59.479Z,6.50
2018-11-06T04:25:34.324Z,6.50
2018-11-06T04:27:09.179Z,6.50
2018-11-06T04:28:44.106Z,6.50
2018-11-06T04:30:18.983Z,6.50
2018-11-06T04:31:53.880Z,6.50
2018-11-06T04:33:28.764Z,6.40
2018-11-06T04:35:03.679Z,6.40
2018-11-06T04:36:38.528Z,6.40
2018-11-06T04:38:13.410Z,6.40
2018-11-06T04:39:48.305Z,6.30
2018-11-06T04:41:23.175Z,6.30
2018-11-06T04:42:58.064Z,6.30
2018-11-06T04:44:39.991Z,6.30
2018-11-06T04:46:14.849Z,6.30
2018-11-06T04:47:49.811Z,6.30
2018-11-06T04:49:24.673Z,6.30
2018-11-06T04:50:59.512Z,6.20
2018-11-06T04:52:34.510Z,6.20
2018-11-06T04:54:09.618Z,6.20
2018-11-06T04:55:44.475Z,6.10
2018-11-06T04:57:19.439Z,6.10
2018-11-06T04:58:54.459Z,6.10
2018-11-06T05:00:29.568Z,6.10
2018-11-06T05:02:05.508Z,6.20
2018-11-06T05:03:44.554Z,6.20
2018-11-06T05:05:19.555Z,6.20
2018-11-06T05:06:54.543Z,6.20
2018-11-06T05:08:29.401Z,6.20
2018-11-06T05:10:04.528Z,6.20
2018-11-06T05:11:39.415Z,6.20
2018-11-06T05:13:14.295Z,6.20
2018-11-06T05:14:49.253Z,6.20
2018-11-06T05:16:24.104Z,6.20
2018-11-06T05:17:59.058Z,6.10
2018-11-06T05:19:33.972Z,6.10
2018-11-06T05:21:08.839Z,6.10
2018-11-06T05:22:44.403Z,6.00
2018-11-06T05:24:19.263Z,6.00
2018-11-06T05:25:54.116Z,6.00
2018-11-06T05:27:29.056Z,6.00
2018-11-06T05:29:03.889Z,6.00
2018-11-06T05:30:38.872Z,6.00
2018-11-06T05:32:13.815Z,6.00
2018-11-06T05:33:48.698Z,6.00
2018-11-06T05:35:23.639Z,6.00
2018-11-06T05:36:58.541Z,6.10
2018-11-06T05:38:33.417Z,6.10
2018-11-06T05:40:19.671Z,6.20
2018-11-06T05:41:54.539Z,6.20
2018-11-06T05:43:29.427Z,6.20
2018-11-06T05:45:04.462Z,6.20
2018-11-06T05:46:39.358Z,6.10
2018-11-06T05:48:14.498Z,6.10
2018-11-06T05:49:49.410Z,6.20
2018-11-06T05:51:24.272Z,6.20
2018-11-06T05:52:59.194Z,6.20
2018-11-06T05:54:34.062Z,6.20
2018-11-06T05:56:09.086Z,6.10
2018-11-06T05:57:44.174Z,6.10
2018-11-06T05:59:19.349Z,6.10
2018-11-06T06:00:54.304Z,6.10
2018-11-06T06:02:29.202Z,6.20
2018-11-06T06:04:04.287Z,6.20
2018-11-06T06:05:39.159Z,6.30
2018-11-06T06:07:14.287Z,6.20
2018-11-06T06:08:49.163Z,6.20
2018-11-06T06:10:24.239Z,6.30
2018-11-06T06:11:59.176Z,6.30
2018-11-06T06:13:34.120Z,6.30
2018-11-06T06:15:09.738Z,6.30
2018-11-06T06:16:44.711Z,6.30
2018-11-06T06:18:19.587Z,6.30
2018-11-06T06:19:54.535Z,6.30
2018-11-06T06:21:29.534Z,6.30
2018-11-06T06:23:04.436Z,6.30
2018-11-06T06:24:39.375Z,6.30
2018-11-06T06:26:14.304Z,6.30
2018-11-06T06:27:49.186Z,6.30
2018-11-06T06:29:24.166Z,6.30
2018-11-06T06:30:59.164Z,6.20
2018-11-06T06:32:34.032Z,6.20
2018-11-06T06:34:08.984Z,6.20
2018-11-06T06:35:44.010Z,6.20
2018-11-06T06:37:18.939Z,6.20
2018-11-06T06:38:53.824Z,6.20
2018-11-06T06:40:28.748Z,6.20
2018-11-06T06:42:03.613Z,6.30
2018-11-06T06:43:38.782Z,6.30
2018-11-06T06:45:15.084Z,6.30
2018-11-06T06:46:49.989Z,6.40
2018-11-06T06:48:24.886Z,6.50
2018-11-06T06:49:59.829Z,6.60
2018-11-06T06:51:34.901Z,6.60
2018-11-06T06:53:09.865Z,6.60
2018-11-06T06:54:44.964Z,6.70
2018-11-06T06:56:19.730Z,6.70
2018-11-06T06:57:54.809Z,6.80
2018-11-06T06:59:29.808Z,6.90
2018-11-06T07:01:05.161Z,7.00
2018-11-06T07:02:40.217Z,7.10
2018-11-06T07:04:18.102Z,7.20
2018-11-06T07:05:53.064Z,7.30
2018-11-06T07:07:27.998Z,7.40
2018-11-06T07:09:03.281Z,7.40
2018-11-06T07:10:38.305Z,7.50
2018-11-06T07:12:13.163Z,7.60
2018-11-06T07:13:48.157Z,7.70
2018-11-06T07:15:23.387Z,7.70
2018-11-06T07:16:58.304Z,7.80
2018-11-06T07:18:33.275Z,7.80
2018-11-06T07:20:11.418Z,7.80
2018-11-06T07:21:46.313Z,7.80
2018-11-06T07:23:25.402Z,7.90
2018-11-06T07:25:00.584Z,8.00
2018-11-06T07:26:35.522Z,8.00
2018-11-06T07:28:10.412Z,8.10
2018-11-06T07:29:45.266Z,8.20
2018-11-06T07:31:20.259Z,8.30
2018-11-06T07:32:55.219Z,8.30
2018-11-06T07:34:30.345Z,8.40
2018-11-06T07:36:05.356Z,8.50
2018-11-06T07:37:40.814Z,8.50
2018-11-06T07:39:15.751Z,8.60
2018-11-06T07:40:50.931Z,8.60
2018-11-06T07:42:25.972Z,8.70
2018-11-06T07:44:00.851Z,8.80
2018-11-06T07:45:35.739Z,8.90
2018-11-06T07:47:10.654Z,9.10
2018-11-06T07:48:45.558Z,9.20
2018-11-06T07:50:20.639Z,9.40
2018-11-06T07:51:55.481Z,9.50
2018-11-06T07:53:30.414Z,9.60
2018-11-06T07:55:06.239Z,9.80
2018-11-06T07:56:41.163Z,9.90
2018-11-06T07:58:16.091Z,10.10
2018-11-06T07:59:51.124Z,10.20
2018-11-06T08:01:26.052Z,10.40
2018-11-06T08:03:01.030Z,10.50
2018-11-06T08:04:35.923Z,10.70
2018-11-06T08:06:10.841Z,10.70
2018-11-06T08:07:46.539Z,10.90
2018-11-06T08:09:21.444Z,10.90
2018-11-06T08:10:56.423Z,11.00
2018-11-06T08:12:31.339Z,11.10
2018-11-06T08:14:06.223Z,11.20
2018-11-06T08:15:41.145Z,11.20
2018-11-06T08:17:16.028Z,11.40
2018-11-06T08:18:51.040Z,11.50
2018-11-06T08:20:25.998Z,11.60
2018-11-06T08:22:01.121Z,11.80
2018-11-06T08:23:36.097Z,11.90
2018-11-06T08:25:12.265Z,12.10
2018-11-06T08:26:47.136Z,12.20
2018-11-06T08:28:22.012Z,12.30
2018-11-06T08:29:56.920Z,12.40
2018-11-06T08:31:32.276Z,12.50
2018-11-06T08:33:06.948Z,12.60
2018-11-06T08:34:41.841Z,12.80
2018-11-06T08:36:17.095Z,12.80
2018-11-06T08:37:52.307Z,12.90
2018-11-06T08:39:27.186Z,13.00
2018-11-06T08:41:02.177Z,13.10
2018-11-06T08:42:37.420Z,13.20
2018-11-06T08:44:12.280Z,13.30
2018-11-06T08:45:47.234Z,13.40
2018-11-06T08:47:22.164Z,13.50
2018-11-06T08:48:57.161Z,13.50
2018-11-06T08:50:32.109Z,13.60
2018-11-06T08:52:07.044Z,13.60
2018-11-06T08:53:41.943Z,13.60
2018-11-06T08:55:17.324Z,13.70
2018-11-06T08:56:52.384Z,13.80
2018-11-06T08:58:27.275Z,13.90
2018-11-06T09:00:02.284Z,14.00
2018-11-06T09:01:37.238Z,14.10
2018-11-06T09:03:12.116Z,14.20
2018-11-06T09:04:47.024Z,14.30
2018-11-06T09:06:22.015Z,14.40
2018-11-06T09:07:57.053Z,14.50
2018-11-06T09:09:32.105Z,14.60
2018-11-06T09:11:07.002Z,14.70
2018-11-06T09:12:41.996Z,14.80
2018-11-06T09:14:16.914Z,14.90
2018-11-06T09:15:51.788Z,15.00
2018-11-06T09:17:26.695Z,15.20
2018-11-06T09:19:01.563Z,15.30
2018-11-06T09:20:36.660Z,15.40
2018-11-06T09:22:11.652Z,15.60
2018-11-06T09:23:46.574Z,15.70
2018-11-06T09:25:21.460Z,15.80
2018-11-06T09:26:56.370Z,15.90
2018-11-06T09:28:31.290Z,16.00
2018-11-06T09:30:09.243Z,16.10
2018-11-06T09:31:44.161Z,16.20
2018-11-06T09:33:19.055Z,16.40
2018-11-06T09:34:54.030Z,16.40
2018-11-06T09:36:29.395Z,16.50
2018-11-06T09:38:04.286Z,16.50
2018-11-06T09:39:39.324Z,16.60
2018-11-06T09:41:14.269Z,16.70
2018-11-06T09:42:49.220Z,16.80
2018-11-06T09:44:27.114Z,16.80
2018-11-06T09:46:01.994Z,16.90
2018-11-06T09:47:37.270Z,17.00
2018-11-06T09:49:12.210Z,17.00
2018-11-06T09:50:47.094Z,17.10
2018-11-06T09:52:22.015Z,17.20
2018-11-06T09:53:56.922Z,17.30
2018-11-06T09:55:31.827Z,17.40
2018-11-06T09:57:06.691Z,17.50
2018-11-06T09:58:41.638Z,17.60
2018-11-06T10:00:17.892Z,17.70
2018-11-06T10:01:52.658Z,17.70
2018-11-06T10:03:27.539Z,17.80
2018-11-06T10:05:02.353Z,18.00
2018-11-06T10:06:37.348Z,18.10
2018-11-06T10:08:12.199Z,18.10
2018-11-06T10:09:47.134Z,18.20
2018-11-06T10:11:22.095Z,18.30
2018-11-06T10:12:56.958Z,18.30
2018-11-06T10:14:31.838Z,18.40
2018-11-06T10:16:06.786Z,18.50
2018-11-06T10:17:42.886Z,18.60
2018-11-06T10:19:17.751Z,18.80
2018-11-06T10:20:52.620Z,18.80
2018-11-06T10:22:27.531Z,18.90
2018-11-06T10:24:02.616Z,19.00
2018-11-06T10:25:37.489Z,19.00
2018-11-06T10:27:12.409Z,19.10
2018-11-06T10:28:47.475Z,19.00
2018-11-06T10:30:22.354Z,19.00
2018-11-06T10:31:57.225Z,19.10
2018-11-06T10:33:32.126Z,19.10
2018-11-06T10:35:07.799Z,19.20
2018-11-06T10:36:42.671Z,19.30
2018-11-06T10:38:17.681Z,19.30
2018-11-06T10:39:52.474Z,19.40
2018-11-06T10:41:27.438Z,19.30
2018-11-06T10:43:02.681Z,19.30
2018-11-06T10:44:37.550Z,19.30
2018-11-06T10:46:12.425Z,19.30
2018-11-06T10:47:47.625Z,19.30
2018-11-06T10:49:22.616Z,19.30
2018-11-06T10:50:57.547Z,19.20
2018-11-06T10:52:32.632Z,19.20
2018-11-06T10:54:07.576Z,19.20
2018-11-06T10:55:42.480Z,19.10
2018-11-06T10:57:17.406Z,19.10
2018-11-06T10:58:52.384Z,19.00
2018-11-06T11:00:32.798Z,19.00
2018-11-06T11:02:13.242Z,19.00
2018-11-06T11:03:53.389Z,19.00
2018-11-06T11:05:29.210Z,19.10
2018-11-06T11:07:04.178Z,19.10
2018-11-06T11:08:39.110Z,19.10
2018-11-06T11:10:14.013Z,19.10
2018-11-06T11:11:48.958Z,19.10
2018-11-06T11:13:23.985Z,19.10
2018-11-06T11:14:58.868Z,19.10
2018-11-06T11:16:34.111Z,19.10
2018-11-06T11:18:09.152Z,19.20
2018-11-06T11:19:44.282Z,19.20
2018-11-06T11:21:19.181Z,19.10
2018-11-06T11:22:54.056Z,19.10
2018-11-06T11:24:28.966Z,19.20
2018-11-06T11:26:04.396Z,19.10
2018-11-06T11:27:39.413Z,19.20
2018-11-06T11:29:14.459Z,19.20
2018-11-06T11:30:49.538Z,19.20
2018-11-06T11:32:24.486Z,19.30
2018-11-06T11:33:59.462Z,19.30
2018-11-06T11:35:34.346Z,19.30
2018-11-06T11:37:09.270Z,19.40
2018-11-06T11:38:44.307Z,19.40
2018-11-06T11:40:19.209Z,19.50
2018-11-06T11:41:54.100Z,19.50
2018-11-06T11:43:29.084Z,19.60
2018-11-06T11:45:04.228Z,19.60
2018-11-06T11:46:39.144Z,19.60
2018-11-06T11:48:14.062Z,19.70
2018-11-06T11:49:48.993Z,19.80
2018-11-06T11:51:23.878Z,19.80
2018-11-06T11:52:58.939Z,19.90
2018-11-06T11:54:33.971Z,20.10
2018-11-06T11:56:08.919Z,20.20
2018-11-06T11:57:43.835Z,20.30
2018-11-06T11:59:18.782Z,20.30
2018-11-06T12:00:53.713Z,20.40
2018-11-06T12:02:28.766Z,20.40
2018-11-06T12:04:03.715Z,20.40
2018-11-06T12:05:38.731Z,20.40
2018-11-06T12:07:13.717Z,20.50
2018-11-06T12:08:48.631Z,20.50
2018-11-06T12:10:23.563Z,20.60
2018-11-06T12:11:58.557Z,20.70
2018-11-06T12:13:33.449Z,20.70
2018-11-06T12:15:10.447Z,20.70
2018-11-06T12:16:45.490Z,20.80
2018-11-06T12:18:20.461Z,20.80
2018-11-06T12:19:55.401Z,20.80
2018-11-06T12:21:30.471Z,20.90
2018-11-06T12:23:05.864Z,20.80
2018-11-06T12:24:40.958Z,20.80
2018-11-06T12:26:15.935Z,20.80
2018-11-06T12:27:50.894Z,20.80
2018-11-06T12:29:25.816Z,20.90
2018-11-06T12:31:00.707Z,20.90
2018-11-06T12:32:35.698Z,20.90
2018-11-06T12:34:10.671Z,20.80
2018-11-06T12:35:45.721Z,20.80
2018-11-06T12:37:20.674Z,20.70
2018-11-06T12:38:55.580Z,20.70
2018-11-06T12:40:30.502Z,20.70
2018-11-06T12:42:05.762Z,20.60
2018-11-06T12:43:40.717Z,20.60
2018-11-06T12:45:16.739Z,20.50
2018-11-06T12:46:51.751Z,20.40
2018-11-06T12:48:26.631Z,20.40
2018-11-06T12:50:01.569Z,20.40
2018-11-06T12:51:36.722Z,20.40
2018-11-06T12:53:11.593Z,20.30
2018-11-06T12:54:46.480Z,20.30
2018-11-06T12:56:21.551Z,20.40
2018-11-06T12:57:56.497Z,20.40
2018-11-06T12:59:31.409Z,20.50
2018-11-06T13:01:06.561Z,20.50
2018-11-06T13:02:41.509Z,20.60
2018-11-06T13:04:16.395Z,20.70
2018-11-06T13:05:52.534Z,20.80
2018-11-06T13:07:27.530Z,20.90
2018-11-06T13:09:02.671Z,20.90
2018-11-06T13:10:37.615Z,21.10
2018-11-06T13:12:12.579Z,21.20
2018-11-06T13:13:47.491Z,21.30
2018-11-06T13:15:22.671Z,21.40
2018-11-06T13:16:57.743Z,21.40
2018-11-06T13:18:33.669Z,21.50
2018-11-06T13:20:10.596Z,21.50
2018-11-06T13:21:45.535Z,21.40
2018-11-06T13:23:20.546Z,21.40
2018-11-06T13:24:55.498Z,21.40
2018-11-06T13:26:30.558Z,21.40
2018-11-06T13:28:05.438Z,21.50
2018-11-06T13:29:40.412Z,21.50
2018-11-06T13:31:15.360Z,21.50
2018-11-06T13:32:50.259Z,21.50
2018-11-06T13:34:25.200Z,21.50
2018-11-06T13:36:00.139Z,21.50
2018-11-06T13:37:35.115Z,21.50
2018-11-06T13:39:11.445Z,21.40
2018-11-06T13:40:46.360Z,21.40
2018-11-06T13:42:21.488Z,21.30
2018-11-06T13:43:56.580Z,21.40
2018-11-06T13:45:31.507Z,21.40
2018-11-06T13:47:06.261Z,21.40
2018-11-06T13:48:41.480Z,21.40
2018-11-06T13:50:16.376Z,21.40
2018-11-06T13:51:51.320Z,21.40
2018-11-06T13:53:26.242Z,21.40
2018-11-06T13:55:01.157Z,21.40
2018-11-06T13:56:36.099Z,21.40
2018-11-06T13:58:11.252Z,21.40
2018-11-06T13:59:46.247Z,21.40
2018-11-06T14:01:21.184Z,21.40
2018-11-06T14:02:56.087Z,21.40
2018-11-06T14:04:31.108Z,21.40
2018-11-06T14:06:06.256Z,21.30
2018-11-06T14:07:41.142Z,21.30
2018-11-06T14:09:16.090Z,21.20
2018-11-06T14:10:51.094Z,21.10
2018-11-06T14:12:25.984Z,21.00
2018-11-06T14:14:01.039Z,21.00
2018-11-06T14:15:35.959Z,20.80
2018-11-06T14:17:10.967Z,20.80
2018-11-06T14:18:46.041Z,20.60
2018-11-06T14:20:21.095Z,20.60
2018-11-06T14:21:56.060Z,20.50
2018-11-06T14:23:31.225Z,20.40
2018-11-06T14:25:06.702Z,20.30
2018-11-06T14:26:41.907Z,20.20
2018-11-06T14:28:16.843Z,20.10
2018-11-06T14:29:51.827Z,20.00
2018-11-06T14:31:26.835Z,20.00
2018-11-06T14:33:01.752Z,19.80
2018-11-06T14:34:36.588Z,19.80
2018-11-06T14:36:11.508Z,19.70
2018-11-06T14:37:46.949Z,19.60
2018-11-06T14:39:21.975Z,19.50
2018-11-06T14:40:57.184Z,19.40
2018-11-06T14:42:32.171Z,19.30
2018-11-06T14:44:07.074Z,19.20
2018-11-06T14:45:42.024Z,19.20
2018-11-06T14:47:17.009Z,19.10
2018-11-06T14:48:51.959Z,19.00
2018-11-06T14:50:26.893Z,18.90
2018-11-06T14:52:01.868Z,18.80
2018-11-06T14:53:36.778Z,18.70
2018-11-06T14:55:13.055Z,18.60
2018-11-06T14:56:47.997Z,18.50
2018-11-06T14:58:22.919Z,18.40
2018-11-06T14:59:57.886Z,18.30
2018-11-06T15:01:32.856Z,18.20
2018-11-06T15:03:07.766Z,18.10
2018-11-06T15:04:42.646Z,18.00
2018-11-06T15:06:17.549Z,17.90
2018-11-06T15:07:52.408Z,17.80
2018-11-06T15:09:27.395Z,17.70
2018-11-06T15:11:02.517Z,17.60
2018-11-06T15:12:37.544Z,17.50
2018-11-06T15:14:12.584Z,17.50
2018-11-06T15:15:47.487Z,17.40
2018-11-06T15:17:22.395Z,17.30
2018-11-06T15:18:57.266Z,17.20
2018-11-06T15:20:32.302Z,17.10
2018-11-06T15:22:07.233Z,17.00
2018-11-06T15:23:42.128Z,16.90
2018-11-06T15:25:17.764Z,16.80
2018-11-06T15:26:52.706Z,16.70
2018-11-06T15:28:27.594Z,16.60
2018-11-06T15:30:02.548Z,16.40
2018-11-06T15:31:37.487Z,16.30
2018-11-06T15:33:12.401Z,16.10
2018-11-06T15:34:47.255Z,16.00
2018-11-06T15:36:22.119Z,15.90
2018-11-06T15:37:57.033Z,15.80
2018-11-06T15:39:31.944Z,15.60
2018-11-06T15:41:06.985Z,15.50
2018-11-06T15:42:41.848Z,15.40
2018-11-06T15:44:16.770Z,15.30
2018-11-06T15:45:51.666Z,15.20
2018-11-06T15:47:26.555Z,15.00
2018-11-06T15:49:01.479Z,14.90
2018-11-06T15:50:36.367Z,14.80
2018-11-06T15:52:11.279Z,14.70
2018-11-06T15:53:46.294Z,14.70
2018-11-06T15:55:21.322Z,14.60
2018-11-06T15:56:56.228Z,14.60
2018-11-06T15:58:31.141Z,14.50
2018-11-06T16:00:10.323Z,14.50
2018-11-06T16:01:45.285Z,14.50
2018-11-06T16:03:20.187Z,14.40
2018-11-06T16:04:55.084Z,14.40
2018-11-06T16:06:29.928Z,14.30
2018-11-06T16:08:04.958Z,14.30
2018-11-06T16:09:39.988Z,14.20
2018-11-06T16:11:14.845Z,14.10
2018-11-06T16:12:49.756Z,14.00
2018-11-06T16:14:24.636Z,13.90
2018-11-06T16:16:00.244Z,13.80
2018-11-06T16:17:35.538Z,13.80
2018-11-06T16:19:10.422Z,13.70
2018-11-06T16:20:45.345Z,13.60
2018-11-06T16:22:20.279Z,13.50
2018-11-06T16:23:55.291Z,13.40
2018-11-06T16:25:30.166Z,13.40
2018-11-06T16:27:05.371Z,13.30
2018-11-06T16:28:40.319Z,13.30
2018-11-06T16:30:19.490Z,13.30
2018-11-06T16:31:54.472Z,13.20
2018-11-06T16:33:30.625Z,13.20
2018-11-06T16:35:06.443Z,13.20
2018-11-06T16:36:41.395Z,13.10
2018-11-06T16:38:16.352Z,13.10
2018-11-06T16:39:51.279Z,13.00
2018-11-06T16:41:26.200Z,13.00
2018-11-06T16:43:01.095Z,12.90
2018-11-06T16:44:35.972Z,12.80
2018-11-06T16:46:10.953Z,12.80
2018-11-06T16:47:46.747Z,12.70
2018-11-06T16:49:21.895Z,12.60
2018-11-06T16:50:56.777Z,12.60
2018-11-06T16:52:32.296Z,12.60
2018-11-06T16:54:07.315Z,12.60
2018-11-06T16:55:42.226Z,12.50
2018-11-06T16:57:17.147Z,12.40
2018-11-06T16:58:52.050Z,12.40
2018-11-06T17:00:27.764Z,12.30
2018-11-06T17:02:04.100Z,12.30
2018-11-06T17:03:39.050Z,12.20
2018-11-06T17:05:14.965Z,12.10
2018-11-06T17:06:51.005Z,12.10
2018-11-06T17:08:25.979Z,12.10
2018-11-06T17:10:00.809Z,12.00
2018-11-06T17:11:35.895Z,12.00
2018-11-06T17:13:10.804Z,12.00
2018-11-06T17:14:45.858Z,12.00
2018-11-06T17:16:20.772Z,12.00
2018-11-06T17:17:55.806Z,11.90
2018-11-06T17:19:30.786Z,11.90
2018-11-06T17:21:06.075Z,11.90
2018-11-06T17:22:41.159Z,11.80
2018-11-06T17:24:16.565Z,11.80
2018-11-06T17:25:51.490Z,11.80
2018-11-06T17:27:26.380Z,11.80
2018-11-06T17:29:01.796Z,11.80
2018-11-06T17:30:36.912Z,11.80
2018-11-06T17:32:12.078Z,11.80
2018-11-06T17:33:47.039Z,11.80
2018-11-06T17:35:22.171Z,11.70
2018-11-06T17:36:57.075Z,11.70
2018-11-06T17:38:32.087Z,11.70
2018-11-06T17:40:08.862Z,11.60
2018-11-06T17:41:43.748Z,11.60
2018-11-06T17:43:21.469Z,11.60
2018-11-06T17:44:56.519Z,11.50
2018-11-06T17:46:31.419Z,11.50
2018-11-06T17:48:06.313Z,11.50
2018-11-06T17:49:41.204Z,11.50
2018-11-06T17:51:16.116Z,11.50
2018-11-06T17:52:50.973Z,11.50
2018-11-06T17:54:27.459Z,11.50
2018-11-06T17:56:02.326Z,11.50
2018-11-06T17:57:38.017Z,11.50
2018-11-06T17:59:13.287Z,11.50
2018-11-06T18:00:48.223Z,11.40
2018-11-06T18:02:24.369Z,11.40
2018-11-06T18:03:59.401Z,11.40
2018-11-06T18:05:34.308Z,11.30
2018-11-06T18:07:09.305Z,11.30
2018-11-06T18:08:44.183Z,11.40
2018-11-06T18:10:20.282Z,11.40
2018-11-06T18:11:55.231Z,11.40
2018-11-06T18:13:30.268Z,11.50
2018-11-06T18:15:05.416Z,11.50
2018-11-06T18:16:40.291Z,11.60
2018-11-06T18:18:15.255Z,11.50
2018-11-06T18:19:50.334Z,11.60
2018-11-06T18:21:25.239Z,11.50
2018-11-06T18:23:00.215Z,11.50
2018-11-06T18:24:35.589Z,11.50
2018-11-06T18:26:10.499Z,11.50
2018-11-06T18:27:45.439Z,11.50
2018-11-06T18:29:20.392Z,11.40
2018-11-06T18:30:56.390Z,11.40
2018-11-06T18:32:31.345Z,11.40
2018-11-06T18:34:06.223Z,11.30
2018-11-06T18:35:42.798Z,11.30
2018-11-06T18:37:17.836Z,11.30
2018-11-06T18:38:53.670Z,11.30
2018-11-06T18:40:28.586Z,11.30
2018-11-06T18:42:03.531Z,11.30
2018-11-06T18:43:38.953Z,11.20
2018-11-06T18:45:16.530Z,11.20
2018-11-06T18:46:51.405Z,11.20
2018-11-06T18:48:26.346Z,11.20
2018-11-06T18:50:01.247Z,11.10
2018-11-06T18:51:36.114Z,11.20
2018-11-06T18:53:10.967Z,11.20
2018-11-06T18:54:45.902Z,11.20
2018-11-06T18:56:20.833Z,11.20
2018-11-06T18:57:55.833Z,11.20
2018-11-06T18:59:30.635Z,11.20
2018-11-06T19:01:05.732Z,11.20
2018-11-06T19:02:41.101Z,11.20
2018-11-06T19:04:16.076Z,11.20
2018-11-06T19:05:50.993Z,11.10
2018-11-06T19:07:25.991Z,11.10
2018-11-06T19:09:02.519Z,11.10
2018-11-06T19:10:37.495Z,11.10
2018-11-06T19:12:12.332Z,11.10
2018-11-06T19:13:47.231Z,11.10
2018-11-06T19:15:23.337Z,11.10
2018-11-06T19:16:58.370Z,11.10
2018-11-06T19:18:33.235Z,11.10
2018-11-06T19:20:08.875Z,11.20
2018-11-06T19:21:43.783Z,11.30
2018-11-06T19:23:18.831Z,11.40
2018-11-06T19:24:53.768Z,11.40
2018-11-06T19:26:28.630Z,11.50
2018-11-06T19:28:03.502Z,11.60
2018-11-06T19:29:38.376Z,11.60
2018-11-06T19:31:13.503Z,11.70
2018-11-06T19:32:49.098Z,11.70
2018-11-06T19:34:24.027Z,11.70
2018-11-06T19:35:58.979Z,11.60
2018-11-06T19:37:33.856Z,11.60
2018-11-06T19:39:11.649Z,11.50
2018-11-06T19:40:46.635Z,11.50
2018-11-06T19:42:21.569Z,11.50
2018-11-06T19:43:56.440Z,11.50
2018-11-06T19:45:31.319Z,11.60
2018-11-06T19:47:06.378Z,11.50
2018-11-06T19:48:41.305Z,11.50
2018-11-06T19:50:17.656Z,11.50
2018-11-06T19:51:52.580Z,11.50
2018-11-06T19:53:27.637Z,11.50
2018-11-06T19:55:02.601Z,11.60
2018-11-06T19:56:37.629Z,11.60
2018-11-06T19:58:12.454Z,11.60
2018-11-06T19:59:47.341Z,11.60
2018-11-06T20:01:22.292Z,11.60
2018-11-06T20:02:57.222Z,11.60
2018-11-06T20:04:32.084Z,11.60
2018-11-06T20:06:06.998Z,11.60
2018-11-06T20:07:42.894Z,11.50
2018-11-06T20:09:17.775Z,11.50
2018-11-06T20:10:52.740Z,11.50
2018-11-06T20:12:27.788Z,11.40
2018-11-06T20:14:02.720Z,11.40
2018-11-06T20:15:37.634Z,11.40
2018-11-06T20:17:12.561Z,11.30
2018-11-06T20:18:47.438Z,11.30
2018-11-06T20:20:24.684Z,11.30
2018-11-06T20:21:59.647Z,11.30
2018-11-06T20:23:34.598Z,11.30
2018-11-06T20:25:10.118Z,11.30
2018-11-06T20:26:45.008Z,11.30
2018-11-06T20:28:19.926Z,11.30
2018-11-06T20:29:54.863Z,11.30
2018-11-06T20:31:29.858Z,11.40
2018-11-06T20:33:04.834Z,11.40
2018-11-06T20:34:39.663Z,11.40
2018-11-06T20:36:14.629Z,11.50
2018-11-06T20:37:49.537Z,11.50
2018-11-06T20:39:24.507Z,11.50
2018-11-06T20:40:59.412Z,11.50